createdAt,value
2022-08-17T00:02:21.238Z,4.00
2022-08-17T00:05:31.373Z,4.47
2022-08-17T00:08:39.267Z,4.32
2022-08-17T00:11:43.995Z,4.18
2022-08-17T00:15:06.185Z,3.75
2022-08-17T00:19:00.895Z,3.92
2022-08-17T00:22:32.856Z,4.30
2022-08-17T00:24:58.067Z,4.72
2022-08-17T00:28:02.030Z,5.00
2022-08-17T00:31:04.111Z,5.70
2022-08-17T00:34:08.700Z,5.10
2022-08-17T00:37:10.297Z,5.63
2022-08-17T00:40:14.501Z,5.30
2022-08-17T00:43:51.706Z,5.30
2022-08-17T00:46:53.317Z,5.40
2022-08-17T00:49:54.952Z,5.25
2022-08-17T00:52:57.980Z,5.65
2022-08-17T00:56:02.657Z,5.35
2022-08-17T00:59:07.086Z,5.53
2022-08-17T01:02:11.248Z,5.68
2022-08-17T01:05:18.623Z,5.40
2022-08-17T01:08:25.725Z,5.90
2022-08-17T01:11:30.033Z,5.50
2022-08-17T01:14:31.545Z,5.40
2022-08-17T01:17:33.895Z,5.60
2022-08-17T01:20:47.863Z,5.32
2022-08-17T01:23:50.437Z,5.43
2022-08-17T01:26:52.025Z,5.63
2022-08-17T01:29:58.706Z,5.90
2022-08-17T01:33:00.342Z,5.80
2022-08-17T01:36:03.560Z,5.65
2022-08-17T01:39:09.597Z,5.38
2022-08-17T01:42:20.596Z,5.63
2022-08-17T01:45:26.635Z,5.78
2022-08-17T01:48:33.580Z,5.82
2022-08-17T01:51:35.431Z,6.07
2022-08-17T01:54:39.627Z,5.80
2022-08-17T01:57:41.234Z,5.50
2022-08-17T02:00:59.570Z,5.53
2022-08-17T02:07:05.894Z,5.28
2022-08-17T02:10:19.887Z,5.60
2022-08-17T02:13:22.088Z,5.40
2022-08-17T02:16:23.699Z,5.03
2022-08-17T02:19:25.550Z,5.47
2022-08-17T02:22:27.577Z,5.88
2022-08-17T02:25:32.029Z,5.80
2022-08-17T02:28:33.716Z,5.85
2022-08-17T02:31:35.594Z,5.93
2022-08-17T02:34:37.519Z,6.07
2022-08-17T02:37:42.130Z,6.18
2022-08-17T02:40:44.107Z,5.80
2022-08-17T02:43:46.817Z,5.80
2022-08-17T02:46:48.364Z,6.00
2022-08-17T02:49:55.606Z,5.68
2022-08-17T02:53:02.351Z,5.90
2022-08-17T02:56:04.492Z,6.05
2022-08-17T02:59:06.055Z,5.43
2022-08-17T03:02:10.770Z,5.70
2022-08-17T03:05:15.441Z,5.60
2022-08-17T03:08:18.241Z,5.88
2022-08-17T03:11:19.756Z,5.50
2022-08-17T03:14:21.541Z,5.53
2022-08-17T03:17:27.928Z,5.75
2022-08-17T03:20:31.993Z,5.90
2022-08-17T03:23:33.857Z,5.57
2022-08-17T03:26:35.475Z,5.97
2022-08-17T03:29:37.024Z,5.78
2022-08-17T03:32:43.353Z,5.30
2022-08-17T03:35:45.160Z,5.85
2022-08-17T03:38:46.785Z,5.43
2022-08-17T03:41:48.372Z,5.60
2022-08-17T03:44:51.474Z,5.47
2022-08-17T03:48:11.397Z,5.35
2022-08-17T03:51:59.321Z,5.47
2022-08-17T03:55:19.277Z,5.60
2022-08-17T03:58:26.708Z,5.30
2022-08-17T04:01:28.495Z,4.93
2022-08-17T04:04:30.294Z,5.43
2022-08-17T04:07:31.939Z,5.07
2022-08-17T04:10:34.642Z,5.38
2022-08-17T04:13:46.627Z,5.07
2022-08-17T04:16:48.194Z,5.70
2022-08-17T04:19:49.710Z,5.95
2022-08-17T04:23:02.013Z,5.90
2022-08-17T04:26:03.932Z,5.78
2022-08-17T04:29:05.532Z,5.50
2022-08-17T04:32:07.149Z,5.50
2022-08-17T04:35:09.000Z,5.45
2022-08-17T04:38:14.295Z,5.65
2022-08-17T04:41:34.863Z,5.18
2022-08-17T04:44:37.758Z,5.82
2022-08-17T04:47:40.238Z,5.32
2022-08-17T04:50:45.620Z,5.93
2022-08-17T04:53:54.203Z,5.43
2022-08-17T04:56:56.514Z,5.43
2022-08-17T04:59:58.041Z,5.68
2022-08-17T05:03:00.409Z,5.57
2022-08-17T05:06:02.031Z,5.75
2022-08-17T05:09:05.128Z,5.43
2022-08-17T05:12:06.961Z,5.63
2022-08-17T05:15:16.055Z,5.85
2022-08-17T05:18:17.605Z,5.55
2022-08-17T05:21:20.243Z,5.18
2022-08-17T05:24:42.643Z,5.75
2022-08-17T05:27:43.314Z,5.40
2022-08-17T05:30:48.675Z,5.40
2022-08-17T05:33:51.001Z,5.78
2022-08-17T05:36:52.556Z,5.50
2022-08-17T05:39:54.547Z,5.18
2022-08-17T05:43:12.802Z,5.55
2022-08-17T05:46:35.668Z,5.90
2022-08-17T05:49:37.213Z,5.50
2022-08-17T05:52:50.088Z,6.00
2022-08-17T05:56:22.368Z,6.00
2022-08-17T05:59:39.068Z,5.95
2022-08-17T06:02:50.974Z,6.05
2022-08-17T06:06:31.356Z,6.03
2022-08-17T06:10:00.192Z,5.93
2022-08-17T06:13:16.690Z,6.22
2022-08-17T06:16:33.554Z,5.72
2022-08-17T06:20:00.196Z,6.00
2022-08-17T06:23:10.688Z,5.55
2022-08-17T06:26:20.566Z,6.28
2022-08-17T06:29:48.562Z,6.00
2022-08-17T06:32:52.604Z,5.85
2022-08-17T06:36:29.192Z,6.22
2022-08-17T06:39:57.879Z,5.70
2022-08-17T06:43:12.645Z,6.25
2022-08-17T06:46:34.335Z,5.78
2022-08-17T06:49:57.978Z,5.22
2022-08-17T06:53:05.709Z,5.75
2022-08-17T06:56:13.633Z,5.22
2022-08-17T06:59:19.477Z,5.70
2022-08-17T07:02:52.040Z,5.82
2022-08-17T07:06:01.513Z,5.88
2022-08-17T07:09:14.145Z,5.72
2022-08-17T07:12:19.408Z,5.32
2022-08-17T07:15:27.253Z,5.50
2022-08-17T07:18:30.133Z,5.75
2022-08-17T07:21:44.099Z,5.50
2022-08-17T07:24:58.301Z,5.55
2022-08-17T07:28:06.842Z,5.90
2022-08-17T07:31:09.495Z,5.50
2022-08-17T07:34:15.564Z,5.60
2022-08-17T07:37:19.561Z,5.57
2022-08-17T07:40:22.989Z,6.07
2022-08-17T07:43:27.702Z,5.78
2022-08-17T07:47:05.439Z,5.63
2022-08-17T07:50:29.032Z,5.30
2022-08-17T07:53:31.897Z,5.80
2022-08-17T07:56:42.637Z,5.80
2022-08-17T08:00:16.209Z,5.45
2022-08-17T08:03:27.247Z,5.85
2022-08-17T08:06:30.100Z,5.78
2022-08-17T08:09:59.299Z,5.63
2022-08-17T08:13:23.100Z,5.97
2022-08-17T08:16:29.614Z,5.43
2022-08-17T08:19:32.609Z,5.50
2022-08-17T08:22:57.317Z,5.25
2022-08-17T08:26:20.424Z,5.38
2022-08-17T08:29:40.655Z,5.72
2022-08-17T08:36:02.842Z,5.18
2022-08-17T08:39:12.921Z,5.25
2022-08-17T08:45:37.258Z,5.38
2022-08-17T08:49:59.046Z,5.30
2022-08-17T08:53:08.575Z,5.50
2022-08-17T08:56:31.569Z,5.63
2022-08-17T08:59:42.102Z,5.25
2022-08-17T09:03:15.364Z,5.30
2022-08-17T09:06:40.110Z,5.38
2022-08-17T09:10:00.555Z,5.05
2022-08-17T09:13:14.941Z,5.10
2022-08-17T09:16:23.092Z,4.72
2022-08-17T09:19:38.892Z,4.88
2022-08-17T09:22:48.600Z,5.35
2022-08-17T09:25:58.691Z,4.93
2022-08-17T09:32:17.398Z,5.00
2022-08-17T09:35:33.769Z,5.50
2022-08-17T09:38:49.966Z,5.40
2022-08-17T09:42:24.438Z,4.95
2022-08-17T09:45:51.278Z,5.13
2022-08-17T09:49:05.028Z,5.55
2022-08-17T09:52:14.608Z,5.47
2022-08-17T09:55:20.879Z,5.20
2022-08-17T09:58:56.312Z,5.40
2022-08-17T10:02:22.446Z,5.07
2022-08-17T10:05:37.637Z,5.43
2022-08-17T10:08:57.245Z,5.13
2022-08-17T10:12:23.731Z,5.25
2022-08-17T10:15:50.130Z,5.28
2022-08-17T10:19:14.076Z,5.10
2022-08-17T10:23:07.948Z,5.38
2022-08-17T10:26:46.258Z,5.18
2022-08-17T10:29:57.229Z,5.47
2022-08-17T10:33:07.220Z,5.25
2022-08-17T10:39:52.098Z,5.72
2022-08-17T10:43:20.392Z,5.45
2022-08-17T10:46:52.231Z,5.15
2022-08-17T10:49:56.040Z,5.25
2022-08-17T10:52:57.626Z,5.25
2022-08-17T10:56:14.445Z,5.25
2022-08-17T10:59:34.535Z,4.97
2022-08-17T11:05:59.941Z,5.50
2022-08-17T11:09:19.994Z,5.20
2022-08-17T11:15:42.566Z,5.32
2022-08-17T11:18:50.752Z,4.93
2022-08-17T11:22:08.734Z,5.07
2022-08-17T11:25:17.863Z,5.15
2022-08-17T11:28:24.140Z,5.03
2022-08-17T11:31:39.714Z,5.15
2022-08-17T11:34:44.481Z,5.00
2022-08-17T11:38:26.307Z,5.00
2022-08-17T11:41:51.049Z,4.55
2022-08-17T11:44:58.543Z,5.03
2022-08-17T11:48:28.363Z,4.93
2022-08-17T11:52:14.550Z,5.03
2022-08-17T11:55:57.395Z,4.68
2022-08-17T11:59:00.746Z,4.60
2022-08-17T12:02:04.820Z,4.68
2022-08-17T12:05:11.931Z,4.68
2022-08-17T12:08:17.677Z,4.63
2022-08-17T12:12:11.123Z,4.50
2022-08-17T12:15:10.033Z,4.32
2022-08-17T12:18:41.876Z,3.95
2022-08-17T12:22:21.866Z,4.38
2022-08-17T12:28:38.680Z,4.45
2022-08-17T12:31:47.182Z,4.55
2022-08-17T12:34:50.261Z,4.30
2022-08-17T12:37:52.053Z,4.47
2022-08-17T12:40:58.039Z,3.92
2022-08-17T12:44:16.459Z,4.60
2022-08-17T12:47:22.297Z,4.18
2022-08-17T12:50:28.588Z,4.15
2022-08-17T12:53:35.092Z,3.92
2022-08-17T12:56:36.786Z,4.40
2022-08-17T12:59:46.101Z,4.70
2022-08-17T13:03:12.731Z,4.50
2022-08-17T13:06:35.601Z,4.18
2022-08-17T13:09:40.749Z,4.35
2022-08-17T13:12:42.607Z,4.20
2022-08-17T13:16:00.648Z,4.50
2022-08-17T13:19:08.998Z,4.40
2022-08-17T13:22:12.680Z,4.60
2022-08-17T13:25:16.830Z,4.40
2022-08-17T13:28:29.807Z,4.63
2022-08-17T13:31:52.011Z,4.75
2022-08-17T13:35:13.152Z,5.20
2022-08-17T13:38:49.446Z,4.03
2022-08-17T13:41:53.980Z,4.55
2022-08-17T13:44:55.628Z,4.82
2022-08-17T13:48:11.820Z,5.10
2022-08-17T13:51:24.868Z,4.75
2022-08-17T13:54:37.631Z,5.05
2022-08-17T13:57:46.651Z,5.10
2022-08-17T14:00:48.279Z,5.93
2022-08-17T14:03:51.318Z,5.35
2022-08-17T14:06:58.275Z,4.82
2022-08-17T14:10:07.863Z,4.82
2022-08-17T14:13:09.493Z,5.00
2022-08-17T14:16:10.977Z,4.45
2022-08-17T14:19:14.908Z,5.10
2022-08-17T14:22:25.658Z,4.65
2022-08-17T14:25:29.285Z,4.38
2022-08-17T14:28:30.841Z,4.50
2022-08-17T14:31:37.596Z,4.43
2022-08-17T14:34:41.357Z,4.50
2022-08-17T14:37:44.819Z,4.75
2022-08-17T14:40:48.057Z,4.88
2022-08-17T14:43:51.330Z,4.55
2022-08-17T14:46:53.025Z,4.22
2022-08-17T14:49:54.746Z,4.30
2022-08-17T14:52:57.715Z,4.00
2022-08-17T14:56:01.453Z,4.28
2022-08-17T14:59:08.577Z,4.22
2022-08-17T15:02:13.861Z,4.10
2022-08-17T15:05:17.170Z,3.83
2022-08-17T15:08:19.498Z,4.10
2022-08-17T15:11:21.038Z,3.30
2022-08-17T15:14:23.207Z,3.03
2022-08-17T15:17:24.744Z,2.88
2022-08-17T15:20:28.406Z,2.88
2022-08-17T15:23:29.962Z,2.65
2022-08-17T15:26:32.599Z,2.70
2022-08-17T15:29:34.299Z,2.88
2022-08-17T15:32:38.342Z,2.80
2022-08-17T15:35:40.568Z,2.83
2022-08-17T15:38:44.550Z,2.50
2022-08-17T15:41:47.230Z,2.50
2022-08-17T15:45:06.430Z,2.58
2022-08-17T15:48:08.923Z,2.50
2022-08-17T15:51:20.713Z,3.00
2022-08-17T15:54:23.328Z,2.72
2022-08-17T15:57:26.267Z,2.53
2022-08-17T16:00:29.207Z,2.70
2022-08-17T16:03:58.236Z,2.65
2022-08-17T16:06:53.738Z,2.45
2022-08-17T16:09:55.416Z,2.88
2022-08-17T16:12:57.929Z,2.80
2022-08-17T16:15:59.553Z,2.58
2022-08-17T16:19:01.400Z,2.80
2022-08-17T16:22:05.858Z,2.42
2022-08-17T16:25:11.717Z,2.53
2022-08-17T16:28:15.479Z,2.90
2022-08-17T16:31:17.475Z,2.60
2022-08-17T16:34:19.333Z,2.92
2022-08-17T16:37:21.007Z,2.75
2022-08-17T16:40:28.573Z,2.75
2022-08-17T16:43:30.437Z,2.47
2022-08-17T16:46:32.099Z,2.72
2022-08-17T16:49:37.439Z,2.90
2022-08-17T16:52:40.454Z,3.13
2022-08-17T16:55:42.579Z,2.90
2022-08-17T16:58:44.326Z,3.17
2022-08-17T17:01:45.931Z,3.22
2022-08-17T17:04:57.768Z,3.22
2022-08-17T17:08:19.526Z,3.17
2022-08-17T17:11:24.011Z,3.05
2022-08-17T17:14:29.473Z,2.90
2022-08-17T17:17:36.494Z,2.97
2022-08-17T17:20:47.594Z,3.10
2022-08-17T17:23:59.755Z,3.20
2022-08-17T17:27:18.429Z,3.20
2022-08-17T17:30:42.519Z,3.35
2022-08-17T17:33:53.356Z,3.22
2022-08-17T17:36:58.799Z,3.25
2022-08-17T17:40:06.723Z,3.22
2022-08-17T17:43:36.999Z,3.45
2022-08-17T17:46:41.941Z,3.60
2022-08-17T17:49:46.386Z,4.00
2022-08-17T17:53:02.056Z,3.50
2022-08-17T17:56:34.309Z,3.72
2022-08-17T17:59:55.039Z,3.92
2022-08-17T18:03:15.323Z,3.63
2022-08-17T18:06:22.602Z,3.90
2022-08-17T18:09:34.168Z,3.90
2022-08-17T18:12:41.548Z,3.33
2022-08-17T18:15:52.941Z,3.65
2022-08-17T18:18:57.627Z,3.40
2022-08-17T18:22:14.221Z,3.63
2022-08-17T18:25:43.074Z,3.55
2022-08-17T18:28:50.538Z,3.40
2022-08-17T18:32:15.005Z,3.47
2022-08-17T18:35:19.589Z,3.53
2022-08-17T18:38:30.132Z,3.67
2022-08-17T18:41:45.013Z,3.30
2022-08-17T18:44:47.515Z,3.20
2022-08-17T18:47:55.396Z,3.58
2022-08-17T18:51:26.279Z,3.40
2022-08-17T18:55:02.003Z,3.90
2022-08-17T18:58:32.642Z,3.83
2022-08-17T19:02:16.096Z,3.85
2022-08-17T19:05:30.801Z,3.63
2022-08-17T19:08:34.960Z,3.78
2022-08-17T19:11:36.938Z,3.85
2022-08-17T19:14:38.815Z,4.10
2022-08-17T19:18:00.129Z,3.53
2022-08-17T19:21:16.719Z,3.63
2022-08-17T19:24:24.151Z,3.33
2022-08-17T19:28:21.811Z,3.92
2022-08-17T19:31:27.431Z,4.07
2022-08-17T19:34:34.762Z,3.55
2022-08-17T19:37:53.699Z,3.42
2022-08-17T19:41:07.669Z,3.60
2022-08-17T19:44:16.146Z,3.40
2022-08-17T19:47:54.830Z,3.50
2022-08-17T19:51:09.233Z,3.60
2022-08-17T19:54:23.029Z,3.60
2022-08-17T19:57:36.634Z,3.72
2022-08-17T20:00:47.695Z,3.67
2022-08-17T20:04:32.296Z,3.47
2022-08-17T20:07:45.185Z,3.42
2022-08-17T20:11:15.005Z,3.30
2022-08-17T20:14:35.700Z,3.40
2022-08-17T20:17:42.501Z,3.72
2022-08-17T20:20:59.383Z,3.40
2022-08-17T20:24:13.069Z,3.40
2022-08-17T20:27:19.576Z,3.58
2022-08-17T20:30:40.264Z,3.90
2022-08-17T20:33:41.845Z,4.00
2022-08-17T20:37:02.082Z,3.60
2022-08-17T20:40:08.980Z,3.38
2022-08-17T20:43:32.469Z,3.72
2022-08-17T20:46:37.423Z,4.07
2022-08-17T20:49:47.849Z,3.25
2022-08-17T20:52:54.967Z,3.80
2022-08-17T20:55:56.991Z,3.67
2022-08-17T20:59:00.684Z,3.70
2022-08-17T21:02:07.214Z,3.35
2022-08-17T21:05:34.555Z,3.75
2022-08-17T21:08:54.401Z,3.58
2022-08-17T21:12:04.423Z,3.72
2022-08-17T21:15:20.575Z,3.88
2022-08-17T21:18:43.434Z,3.65
2022-08-17T21:22:09.255Z,3.90
2022-08-17T21:25:49.032Z,4.03
2022-08-17T21:29:32.286Z,4.05
2022-08-17T21:32:37.859Z,3.55
2022-08-17T21:36:11.708Z,3.75
2022-08-17T21:39:16.014Z,4.00
2022-08-17T21:42:24.934Z,3.83
2022-08-17T21:45:38.775Z,3.65
2022-08-17T21:48:44.051Z,3.63
2022-08-17T21:51:49.932Z,3.40
2022-08-17T21:54:53.314Z,3.20
2022-08-17T21:58:19.185Z,3.50
2022-08-17T22:01:31.831Z,3.60
2022-08-17T22:04:39.360Z,3.55
2022-08-17T22:07:42.970Z,3.30
2022-08-17T22:10:48.336Z,3.47
2022-08-17T22:13:49.847Z,3.22
2022-08-17T22:17:28.020Z,2.90
2022-08-17T22:20:29.787Z,3.17
2022-08-17T22:23:54.067Z,3.20
2022-08-17T22:27:08.794Z,3.00
2022-08-17T22:30:33.571Z,2.90
2022-08-17T22:33:43.303Z,2.95
2022-08-17T22:36:44.902Z,2.85
2022-08-17T22:39:57.435Z,3.22
2022-08-17T22:43:03.001Z,2.92
2022-08-17T22:46:08.603Z,3.00
2022-08-17T22:49:10.160Z,2.97
2022-08-17T22:52:32.338Z,3.30
2022-08-17T22:55:52.786Z,3.17
2022-08-17T22:59:15.945Z,2.90
2022-08-17T23:02:26.421Z,2.97
2022-08-17T23:05:28.011Z,3.10
2022-08-17T23:08:30.465Z,2.83
2022-08-17T23:11:58.393Z,3.08
2022-08-17T23:15:01.615Z,2.90
2022-08-17T23:18:04.734Z,2.88
2022-08-17T23:21:07.632Z,2.83
2022-08-17T23:24:09.914Z,3.25
2022-08-17T23:27:11.741Z,3.20
2022-08-17T23:30:13.715Z,3.60
2022-08-17T23:33:25.542Z,3.15
2022-08-17T23:36:28.212Z,3.55
2022-08-17T23:39:30.421Z,3.35
2022-08-17T23:42:33.602Z,3.90
2022-08-17T23:45:35.141Z,4.57
2022-08-17T23:48:37.469Z,4.10
2022-08-17T23:51:42.531Z,4.75
2022-08-17T23:54:46.792Z,4.07
2022-08-17T23:57:48.474Z,4.32
